Back to Top

Language: 

My Weather Underground Personal Weather Station Historical Data with Graphs...

Delerius Weather Station Historical Data
Daily Summary for January 04, 2018 Units:  Metric    English   Both
« Previous Day
Next Day »
Daily Weekly Monthly Yearly Custom
  High: Low: Average:
Temperature: 10.2 °C 4.8 °C 6.6 °C
Dew Point: 8.2 °C 2.9 °C 4.8 °C
Humidity: 96 % 83 % 88 %
Wind Speed: 45.1 km/h 1.6 km/h 17.5 km/h
Wind Gust: 85.3 km/h - -
Wind:- - SW
Pressure: 994.8 hPa 982.3 hPa -
Precipitation: 1.27 mm    
Historical Graphs
 
 
Tabular Data for January 04, 2018
Time Temperature Dew Point Pressure Wind Wind Speed Wind Gust Humidity Rainfall Rate (Hourly) solar Conditions
00:00 7.1 °C 5.2 °C 994.5 hPa West 29 km/h 41.8 km/h 88 % 0 mm 0 W/m2
00:06 7.1 °C 5.2 °C 994.5 hPa West 27.4 km/h 41.8 km/h 88 % 0 mm 0 W/m2
00:07 7.1 °C 5.2 °C 994.5 hPa West 29 km/h 41.8 km/h 88 % 0 mm 0 W/m2
00:08 7.1 °C 5.2 °C 994.5 hPa West 25.7 km/h 41.8 km/h 88 % 0 mm 0 W/m2
00:14 7.2 °C 5.3 °C 994.5 hPa West 22.5 km/h 37 km/h 88 % 0 mm 0 W/m2
00:16 7.2 °C 5.3 °C 994.1 hPa West 20.9 km/h 37 km/h 88 % 0 mm 0 W/m2
00:17 7.2 °C 5.3 °C 994.1 hPa West 20.9 km/h 30.6 km/h 88 % 0 mm 0 W/m2
00:22 7.2 °C 5.3 °C 994.5 hPa West 25.7 km/h 38.6 km/h 88 % 0 mm 0 W/m2
00:24 7.2 °C 5.3 °C 994.1 hPa West 25.7 km/h 35.4 km/h 88 % 0 mm 0 W/m2
00:29 7.3 °C 5.4 °C 994.1 hPa WSW 25.7 km/h 37 km/h 88 % 0 mm 0 W/m2
00:34 7.3 °C 5.3 °C 994.1 hPa WSW 22.5 km/h 38.6 km/h 87 % 0 mm 0 W/m2
00:39 7.4 °C 5.4 °C 993.8 hPa West 22.5 km/h 35.4 km/h 87 % 0 mm 0 W/m2
00:41 7.4 °C 5.4 °C 994.1 hPa West 22.5 km/h 35.4 km/h 87 % 0 mm 0 W/m2
00:46 7.4 °C 5.4 °C 994.1 hPa West 19.3 km/h 37 km/h 87 % 0 mm 0 W/m2
00:47 7.3 °C 5.3 °C 994.1 hPa West 16.1 km/h 30.6 km/h 87 % 0 mm 0 W/m2
00:52 7.3 °C 5.3 °C 993.8 hPa West 19.3 km/h 38.6 km/h 87 % 0 mm 0 W/m2
00:53 7.3 °C 5.3 °C 993.8 hPa West 17.7 km/h 32.2 km/h 87 % 0 mm 0 W/m2
00:57 7.2 °C 5.2 °C 993.8 hPa West 19.3 km/h 30.6 km/h 87 % 0 mm 0 W/m2
01:03 7.2 °C 5 °C 994.1 hPa West 17.7 km/h 32.2 km/h 86 % 0 mm 0 W/m2
01:08 7.2 °C 5 °C 994.1 hPa WSW 16.1 km/h 29 km/h 86 % 0 mm 0 W/m2
01:10 7.2 °C 5 °C 994.1 hPa WSW 17.7 km/h 29 km/h 86 % 0 mm 0 W/m2
01:15 7.2 °C 5 °C 994.1 hPa West 12.9 km/h 19.3 km/h 86 % 0 mm 0 W/m2
01:19 7.2 °C 5 °C 994.1 hPa West 14.5 km/h 25.7 km/h 86 % 0 mm 0 W/m2
01:24 7.2 °C 5 °C 994.1 hPa West 14.5 km/h 20.9 km/h 86 % 0 mm 0 W/m2
01:25 7.2 °C 5 °C 994.1 hPa West 12.9 km/h 20.9 km/h 86 % 0 mm 0 W/m2
01:30 7.2 °C 5 °C 994.1 hPa SW 11.3 km/h 19.3 km/h 86 % 0 mm 0 W/m2
01:35 7.2 °C 5 °C 994.1 hPa WSW 14.5 km/h 29 km/h 86 % 0 mm 0 W/m2
01:36 7.2 °C 5 °C 994.1 hPa WSW 14.5 km/h 29 km/h 86 % 0 mm 0 W/m2
01:38 7.2 °C 5 °C 994.1 hPa WSW 8 km/h 14.5 km/h 86 % 0 mm 0 W/m2
01:41 7.2 °C 5 °C 994.1 hPa SW 8 km/h 17.7 km/h 86 % 0 mm 0 W/m2
01:43 7.2 °C 5 °C 994.1 hPa SW 6.4 km/h 12.9 km/h 86 % 0 mm 0 W/m2
01:46 7.2 °C 5 °C 994.5 hPa WSW 11.3 km/h 16.1 km/h 86 % 0 mm 0 W/m2
01:51 7.2 °C 5 °C 994.1 hPa SW 8 km/h 16.1 km/h 86 % 0 mm 0 W/m2
01:52 7.2 °C 5 °C 994.1 hPa SW 8 km/h 16.1 km/h 86 % 0 mm 0 W/m2
01:53 7.2 °C 5 °C 994.1 hPa SW 3.2 km/h 8 km/h 86 % 0 mm 0 W/m2
01:58 7.2 °C 5 °C 994.5 hPa West 8 km/h 12.9 km/h 86 % 0 mm 0 W/m2
02:00 7.2 °C 5 °C 994.5 hPa WNW 6.4 km/h 12.9 km/h 86 % 0 mm 0 W/m2
02:05 7.2 °C 5 °C 994.8 hPa SW 8 km/h 12.9 km/h 86 % 0 mm 0 W/m2
02:08 7.2 °C 5.2 °C 994.8 hPa WSW 9.7 km/h 14.5 km/h 87 % 0 mm 0 W/m2
02:13 7.2 °C 5.2 °C 994.8 hPa SW 8 km/h 16.1 km/h 87 % 0 mm 0 W/m2
02:18 7.2 °C 5.2 °C 994.5 hPa SW 9.7 km/h 19.3 km/h 87 % 0 mm 0 W/m2
02:21 7.2 °C 5.2 °C 994.5 hPa SW 11.3 km/h 14.5 km/h 87 % 0 mm 0 W/m2
02:23 7.2 °C 5.2 °C 994.5 hPa SW 12.9 km/h 24.1 km/h 87 % 0 mm 0 W/m2
02:25 7.2 °C 5.2 °C 994.5 hPa WSW 11.3 km/h 24.1 km/h 87 % 0 mm 0 W/m2
02:30 7.2 °C 5.2 °C 994.8 hPa SW 9.7 km/h 14.5 km/h 87 % 0 mm 0 W/m2
02:31 7.2 °C 5.2 °C 994.8 hPa SW 9.7 km/h 14.5 km/h 87 % 0 mm 0 W/m2
02:36 7.2 °C 5 °C 994.5 hPa WSW 11.3 km/h 17.7 km/h 86 % 0 mm 0 W/m2
02:37 7.2 °C 5 °C 994.5 hPa WSW 11.3 km/h 17.7 km/h 86 % 0 mm 0 W/m2
02:42 7.2 °C 5 °C 994.5 hPa West 11.3 km/h 16.1 km/h 86 % 0 mm 0 W/m2
02:47 7.3 °C 5.1 °C 994.1 hPa West 14.5 km/h 24.1 km/h 86 % 0 mm 0 W/m2
02:48 7.3 °C 5.1 °C 994.1 hPa West 16.1 km/h 24.1 km/h 86 % 0 mm 0 W/m2
02:49 7.3 °C 5.1 °C 994.1 hPa West 16.1 km/h 20.9 km/h 86 % 0 mm 0 W/m2
02:54 7.3 °C 5.1 °C 994.1 hPa West 16.1 km/h 20.9 km/h 86 % 0 mm 0 W/m2
02:59 7.2 °C 4.8 °C 993.8 hPa West 16.1 km/h 20.9 km/h 85 % 0 mm 0 W/m2
03:01 7.3 °C 4.9 °C 993.8 hPa West 16.1 km/h 24.1 km/h 85 % 0 mm 0 W/m2
03:06 7.3 °C 4.9 °C 993.5 hPa West 16.1 km/h 20.9 km/h 85 % 0 mm 0 W/m2
03:09 7.2 °C 4.8 °C 993.5 hPa West 14.5 km/h 22.5 km/h 85 % 0 mm 0 W/m2
03:12 7.2 °C 4.8 °C 993.5 hPa WSW 9.7 km/h 16.1 km/h 85 % 0 mm 0 W/m2
03:15 7.2 °C 4.8 °C 993.5 hPa WSW 9.7 km/h 12.9 km/h 85 % 0 mm 0 W/m2
03:20 7.2 °C 4.8 °C 993.5 hPa WSW 8 km/h 11.3 km/h 85 % 0 mm 0 W/m2
03:22 7.2 °C 4.8 °C 993.5 hPa SW 8 km/h 12.9 km/h 85 % 0 mm 0 W/m2
03:27 7.2 °C 4.8 °C 993.5 hPa SW 9.7 km/h 14.5 km/h 85 % 0 mm 0 W/m2
03:32 7.2 °C 4.8 °C 993.5 hPa SSW 8 km/h 11.3 km/h 85 % 0 mm 0 W/m2
03:33 7.2 °C 4.8 °C 993.5 hPa SSW 6.4 km/h 11.3 km/h 85 % 0 mm 0 W/m2
03:36 7.2 °C 4.8 °C 993.5 hPa SW 6.4 km/h 14.5 km/h 85 % 0 mm 0 W/m2
03:38 7.1 °C 4.7 °C 993.8 hPa WSW 8 km/h 14.5 km/h 85 % 0 mm 0 W/m2
03:43 7.2 °C 4.8 °C 993.5 hPa WSW 4.8 km/h 9.7 km/h 85 % 0 mm 0 W/m2
03:45 7.2 °C 4.8 °C 993.5 hPa WSW 8 km/h 14.5 km/h 85 % 0 mm 0 W/m2
03:50 7.2 °C 4.8 °C 993.1 hPa West 11.3 km/h 16.1 km/h 85 % 0 mm 0 W/m2
03:51 7.2 °C 4.8 °C 993.1 hPa West 11.3 km/h 16.1 km/h 85 % 0 mm 0 W/m2
03:54 7.2 °C 4.7 °C 993.1 hPa WSW 16.1 km/h 25.7 km/h 84 % 0 mm 0 W/m2
03:57 7.2 °C 4.7 °C 993.1 hPa West 14.5 km/h 24.1 km/h 84 % 0 mm 0 W/m2
04:02 7.2 °C 4.7 °C 992.8 hPa West 12.9 km/h 17.7 km/h 84 % 0 mm 0 W/m2
04:05 7.2 °C 4.7 °C 993.1 hPa West 14.5 km/h 22.5 km/h 84 % 0 mm 0 W/m2
04:11 7.1 °C 4.6 °C 993.1 hPa West 14.5 km/h 24.1 km/h 84 % 0 mm 0 W/m2
04:13 7.1 °C 4.6 °C 993.1 hPa WSW 16.1 km/h 24.1 km/h 84 % 0 mm 0 W/m2
04:14 7.1 °C 4.6 °C 993.1 hPa WSW 16.1 km/h 24.1 km/h 84 % 0 mm 0 W/m2
04:15 7.1 °C 4.6 °C 993.1 hPa WSW 16.1 km/h 24.1 km/h 84 % 0 mm 0 W/m2
04:16 7.1 °C 4.6 °C 992.8 hPa West 11.3 km/h 16.1 km/h 84 % 0 mm 0 W/m2
04:17 7.1 °C 4.7 °C 992.8 hPa WSW 11.3 km/h 17.7 km/h 85 % 0 mm 0 W/m2
04:18 7.1 °C 4.7 °C 992.8 hPa WSW 11.3 km/h 17.7 km/h 85 % 0 mm 0 W/m2
04:20 7.1 °C 4.7 °C 992.8 hPa WSW 11.3 km/h 17.7 km/h 85 % 0 mm 0 W/m2
04:22 7.1 °C 4.7 °C 992.8 hPa WSW 6.4 km/h 12.9 km/h 85 % 0 mm 0 W/m2
04:23 7.1 °C 4.7 °C 992.8 hPa SW 4.8 km/h 9.7 km/h 85 % 0 mm 0 W/m2
04:25 7.1 °C 4.7 °C 992.8 hPa SW 6.4 km/h 9.7 km/h 85 % 0 mm 0 W/m2
04:28 7.1 °C 4.7 °C 992.8 hPa SW 1.6 km/h 3.2 km/h 85 % 0 mm 0 W/m2
04:33 7.1 °C 4.7 °C 993.1 hPa SSW 1.6 km/h 6.4 km/h 85 % 0 mm 0 W/m2
04:37 7 °C 4.7 °C 993.1 hPa South 4.8 km/h 9.7 km/h 85 % 0 mm 0 W/m2
04:40 7 °C 4.7 °C 993.1 hPa South 1.6 km/h 8 km/h 85 % 0 mm 0 W/m2
04:42 7 °C 4.7 °C 993.1 hPa South 3.2 km/h 8 km/h 85 % 0 mm 0 W/m2
04:43 7 °C 4.7 °C 993.1 hPa South 4.8 km/h 9.7 km/h 85 % 0 mm 0 W/m2
04:44 7 °C 4.7 °C 993.1 hPa SSW 4.8 km/h 9.7 km/h 85 % 0 mm 0 W/m2
04:48 7 °C 4.7 °C 992.8 hPa SSW 4.8 km/h 11.3 km/h 85 % 0 mm 0 W/m2
04:50 7 °C 4.7 °C 993.1 hPa SSW 8 km/h 11.3 km/h 85 % 0 mm 0 W/m2
04:52 7.1 °C 4.6 °C 992.8 hPa SW 9.7 km/h 12.9 km/h 84 % 0 mm 0 W/m2
04:57 7.1 °C 4.6 °C 992.8 hPa WSW 8 km/h 11.3 km/h 84 % 0 mm 0 W/m2
04:58 7.1 °C 4.6 °C 992.8 hPa WSW 8 km/h 11.3 km/h 84 % 0 mm 0 W/m2
05:03 7.1 °C 4.6 °C 992.8 hPa WSW 12.9 km/h 16.1 km/h 84 % 0 mm 0 W/m2
05:04 7.1 °C 4.6 °C 992.8 hPa WSW 12.9 km/h 16.1 km/h 84 % 0 mm 0 W/m2
05:09 7.1 °C 4.6 °C 992.4 hPa West 11.3 km/h 14.5 km/h 84 % 0 mm 0 W/m2
05:14 7.1 °C 4.6 °C 992.4 hPa WSW 9.7 km/h 16.1 km/h 84 % 0 mm 0 W/m2
05:15 7.1 °C 4.6 °C 992.4 hPa WSW 9.7 km/h 12.9 km/h 84 % 0 mm 0 W/m2
05:19 7.1 °C 4.6 °C 992.4 hPa West 8 km/h 11.3 km/h 84 % 0 mm 0 W/m2
05:23 7.1 °C 4.6 °C 992.4 hPa WSW 6.4 km/h 9.7 km/h 84 % 0 mm 0 W/m2
05:28 7.1 °C 4.6 °C 992.4 hPa SW 8 km/h 11.3 km/h 84 % 0 mm 0 W/m2
05:30 7.1 °C 4.6 °C 992.4 hPa SW 8 km/h 12.9 km/h 84 % 0 mm 0 W/m2
05:33 7 °C 4.5 °C 992.4 hPa SSW 3.2 km/h 8 km/h 84 % 0 mm 0 W/m2
05:38 7 °C 4.5 °C 992.4 hPa SSW 6.4 km/h 8 km/h 84 % 0 mm 0 W/m2
05:42 7 °C 4.7 °C 992.1 hPa SSW 6.4 km/h 11.3 km/h 85 % 0 mm 0 W/m2
05:47 6.9 °C 4.6 °C 992.1 hPa SSW 6.4 km/h 12.9 km/h 85 % 0 mm 0 W/m2
05:48 6.9 °C 4.6 °C 992.1 hPa SSW 8 km/h 12.9 km/h 85 % 0 mm 0 W/m2
05:53 6.9 °C 4.7 °C 991.8 hPa SSW 9.7 km/h 16.1 km/h 86 % 0 mm 0 W/m2
05:57 6.8 °C 4.6 °C 991.8 hPa SW 8 km/h 14.5 km/h 86 % 0 mm 0 W/m2
06:01 6.8 °C 4.6 °C 991.8 hPa SSW 4.8 km/h 9.7 km/h 86 % 0 mm 0 W/m2
06:06 6.8 °C 4.8 °C 991.8 hPa SSW 3.2 km/h 12.9 km/h 87 % 0 mm 0 W/m2
06:09 6.7 °C 4.7 °C 991.8 hPa South 4.8 km/h 9.7 km/h 87 % 0 mm 0 W/m2
06:14 6.7 °C 4.7 °C 991.4 hPa South 6.4 km/h 9.7 km/h 87 % 0 mm 0 W/m2
06:20 6.6 °C 4.8 °C 991.1 hPa SSE 8 km/h 16.1 km/h 88 % 0 mm 0 W/m2
06:21 6.6 °C 4.8 °C 991.1 hPa SSE 8 km/h 12.9 km/h 88 % 0 mm 0 W/m2
06:22 6.6 °C 4.8 °C 991.1 hPa SSE 6.4 km/h 12.9 km/h 88 % 0 mm 0 W/m2
06:26 6.5 °C 4.8 °C 991.1 hPa SE 6.4 km/h 14.5 km/h 89 % 0 mm 0 W/m2
06:31 6.4 °C 4.7 °C 990.7 hPa SSE 8 km/h 12.9 km/h 89 % 0 mm 0 W/m2
06:32 6.4 °C 4.7 °C 990.7 hPa SSE 6.4 km/h 12.9 km/h 89 % 0 mm 0 W/m2
06:37 6.3 °C 4.6 °C 990.7 hPa South 6.4 km/h 12.9 km/h 89 % 0 mm 0 W/m2
06:38 6.3 °C 4.8 °C 990.7 hPa South 6.4 km/h 14.5 km/h 90 % 0 mm 0 W/m2
06:43 6.3 °C 4.8 °C 990.4 hPa SSE 6.4 km/h 9.7 km/h 90 % 0 mm 0 W/m2
06:45 6.3 °C 4.8 °C 990.4 hPa SSE 4.8 km/h 9.7 km/h 90 % 0 mm 0 W/m2
06:49 6.3 °C 4.8 °C 990.4 hPa SSE 8 km/h 11.3 km/h 90 % 0 mm 0 W/m2
06:50 6.2 °C 4.7 °C 990.4 hPa SSE 8 km/h 11.3 km/h 90 % 0 mm 0 W/m2
06:54 6.2 °C 4.7 °C 990.4 hPa SSE 9.7 km/h 12.9 km/h 90 % 0 mm 0 W/m2
06:56 6.2 °C 4.7 °C 990.1 hPa SSE 9.7 km/h 12.9 km/h 90 % 0 mm 0 W/m2
07:01 6.2 °C 4.7 °C 990.1 hPa SSE 8 km/h 12.9 km/h 90 % 0 mm 0 W/m2
07:04 6.2 °C 4.7 °C 990.1 hPa SSE 8 km/h 11.3 km/h 90 % 0 mm 0 W/m2
07:07 6.1 °C 4.7 °C 990.1 hPa SSE 9.7 km/h 12.9 km/h 91 % 0 mm 0 W/m2
07:09 6.1 °C 4.7 °C 990.1 hPa SSE 11.3 km/h 16.1 km/h 91 % 0 mm 0 W/m2
07:13 6.1 °C 4.7 °C 990.1 hPa SSE 11.3 km/h 16.1 km/h 91 % 0 mm 0 W/m2
07:15 6.1 °C 4.7 °C 990.1 hPa SSE 8 km/h 12.9 km/h 91 % 0 mm 0 W/m2
07:18 6.1 °C 4.7 °C 989.7 hPa SSE 6.4 km/h 12.9 km/h 91 % 0 mm 0 W/m2
07:19 6.1 °C 4.7 °C 989.7 hPa SSE 8 km/h 12.9 km/h 91 % 0 mm 0 W/m2
07:20 6.1 °C 4.7 °C 989.7 hPa SSE 9.7 km/h 12.9 km/h 91 % 0 mm 0 W/m2
07:21 6.1 °C 4.7 °C 989.7 hPa SSE 9.7 km/h 12.9 km/h 91 % 0 mm 0 W/m2
07:26 6 °C 4.7 °C 989.7 hPa South 8 km/h 17.7 km/h 91 % 0 mm 0 W/m2
07:31 6 °C 4.7 °C 989.4 hPa SSE 11.3 km/h 16.1 km/h 91 % 0 mm 0 W/m2
07:33 6 °C 4.7 °C 989.4 hPa SSE 11.3 km/h 16.1 km/h 91 % 0 mm 0 W/m2
07:38 5.9 °C 4.7 °C 989.4 hPa SSE 9.7 km/h 19.3 km/h 92 % 0 mm 0 W/m2
07:40 5.9 °C 4.7 °C 989.7 hPa South 9.7 km/h 19.3 km/h 92 % 0 mm 0 W/m2
07:45 5.8 °C 4.6 °C 989.4 hPa South 9.7 km/h 17.7 km/h 92 % 0 mm 0 W/m2
07:46 5.8 °C 4.6 °C 989.4 hPa South 9.7 km/h 17.7 km/h 92 % 0 mm 0 W/m2
07:50 5.8 °C 4.6 °C 989.4 hPa SSE 8 km/h 14.5 km/h 92 % 0 mm 0 W/m2
07:53 5.8 °C 4.6 °C 989.4 hPa South 8 km/h 19.3 km/h 92 % 0 mm 0 W/m2
07:56 5.8 °C 4.6 °C 989.4 hPa SSE 9.7 km/h 12.9 km/h 92 % 0 mm 0 W/m2
08:01 5.7 °C 4.7 °C 989.4 hPa South 9.7 km/h 14.5 km/h 93 % 0.25 mm 0 W/m2
08:04 5.7 °C 4.5 °C 989.4 hPa South 9.7 km/h 14.5 km/h 92 % 0.25 mm 0 W/m2
08:07 5.7 °C 4.7 °C 989.1 hPa South 6.4 km/h 12.9 km/h 93 % 0.25 mm 0 W/m2
08:08 5.7 °C 4.7 °C 989.1 hPa South 4.8 km/h 12.9 km/h 93 % 0.25 mm 0 W/m2
08:11 5.7 °C 4.7 °C 989.1 hPa South 6.4 km/h 11.3 km/h 93 % 0.25 mm 0 W/m2
08:13 5.7 °C 4.7 °C 989.1 hPa SSW 4.8 km/h 11.3 km/h 93 % 0.25 mm 0 W/m2
08:19 5.6 °C 4.6 °C 988.7 hPa South 11.3 km/h 19.3 km/h 93 % 0.25 mm 0 W/m2
08:23 5.6 °C 4.6 °C 988.7 hPa South 9.7 km/h 12.9 km/h 93 % 0.25 mm 0 W/m2
08:26 5.6 °C 4.6 °C 988.7 hPa SSE 9.7 km/h 12.9 km/h 93 % 0.25 mm 0 W/m2
08:30 5.5 °C 4.4 °C 988.7 hPa SSE 9.7 km/h 14.5 km/h 93 % 0.25 mm 0 W/m2
08:31 5.5 °C 4.4 °C 988.7 hPa SSE 9.7 km/h 14.5 km/h 93 % 0.25 mm 0 W/m2
08:36 5.4 °C 4.3 °C 988.7 hPa SSE 11.3 km/h 17.7 km/h 93 % 0.25 mm 0 W/m2
08:42 5.4 °C 4.5 °C 988.4 hPa SSE 12.9 km/h 17.7 km/h 94 % 0.25 mm 0 W/m2
08:46 5.3 °C 4.4 °C 988.4 hPa SE 9.7 km/h 14.5 km/h 94 % 0.25 mm 0 W/m2
08:51 5.3 °C 4.4 °C 988 hPa SSE 8 km/h 11.3 km/h 94 % 0.51 mm 5 W/m2
08:55 5.3 °C 4.4 °C 988 hPa South 6.4 km/h 11.3 km/h 94 % 0.51 mm 0 W/m2
08:56 5.3 °C 4.4 °C 988 hPa South 6.4 km/h 11.3 km/h 94 % 0.51 mm 0 W/m2
09:00 5.3 °C 4.4 °C 988 hPa South 9.7 km/h 19.3 km/h 94 % 0.51 mm 0 W/m2
09:03 5.2 °C 4.3 °C 988 hPa South 8 km/h 12.9 km/h 94 % 0.25 mm 5 W/m2
09:05 5.2 °C 4.3 °C 988 hPa SSE 9.7 km/h 14.5 km/h 94 % 0.25 mm 7 W/m2
09:08 5.2 °C 4.3 °C 988 hPa SSE 8 km/h 16.1 km/h 94 % 0.25 mm 7 W/m2
09:13 5.1 °C 4.2 °C 988 hPa SSE 8 km/h 12.9 km/h 94 % 0.25 mm 7 W/m2
09:15 5.1 °C 4.2 °C 988 hPa SE 8 km/h 14.5 km/h 94 % 0.25 mm 5 W/m2
09:21 5.1 °C 4.2 °C 988 hPa SSE 8 km/h 14.5 km/h 94 % 0.25 mm 5 W/m2
09:26 5.1 °C 4.2 °C 987.7 hPa SSE 11.3 km/h 17.7 km/h 94 % 0.25 mm 0 W/m2
09:29 5.1 °C 4.2 °C 987.7 hPa SE 12.9 km/h 20.9 km/h 94 % 0.25 mm 5 W/m2
09:32 5.1 °C 4.2 °C 987.4 hPa SE 12.9 km/h 17.7 km/h 94 % 0.25 mm 5 W/m2
09:36 5.1 °C 4.2 °C 987.4 hPa SE 12.9 km/h 17.7 km/h 94 % 0.51 mm 5 W/m2
09:37 5.1 °C 4.4 °C 987.4 hPa SE 12.9 km/h 20.9 km/h 95 % 0.51 mm 5 W/m2
09:42 5.1 °C 4.4 °C 987.4 hPa SE 11.3 km/h 16.1 km/h 95 % 0.51 mm 7 W/m2
09:47 5.1 °C 4.4 °C 987 hPa SE 12.9 km/h 17.7 km/h 95 % 0.51 mm 5 W/m2
09:48 5.1 °C 4.4 °C 987 hPa SE 11.3 km/h 17.7 km/h 95 % 0.51 mm 5 W/m2
09:49 5.1 °C 4.4 °C 987 hPa SE 11.3 km/h 16.1 km/h 95 % 0.51 mm 5 W/m2
09:54 5.1 °C 4.4 °C 987 hPa SE 14.5 km/h 20.9 km/h 95 % 0.51 mm 11 W/m2
09:56 5.1 °C 4.4 °C 987 hPa SE 14.5 km/h 20.9 km/h 95 % 0.51 mm 9 W/m2
09:58 5.1 °C 4.4 °C 987 hPa SE 14.5 km/h 22.5 km/h 95 % 0.51 mm 7 W/m2
10:01 5.1 °C 4.4 °C 986.7 hPa SE 14.5 km/h 19.3 km/h 95 % 0.51 mm 14 W/m2
10:06 5.1 °C 4.4 °C 986.7 hPa SE 14.5 km/h 22.5 km/h 95 % 0.51 mm 14 W/m2
10:07 5.1 °C 4.4 °C 986.3 hPa SE 14.5 km/h 22.5 km/h 95 % 0.51 mm 12 W/m2
10:12 5.1 °C 4.4 °C 986.3 hPa SE 16.1 km/h 24.1 km/h 95 % 0.51 mm 21 W/m2
10:17 5.1 °C 4.4 °C 986.3 hPa SSE 14.5 km/h 25.7 km/h 95 % 0.51 mm 19 W/m2
10:18 5.1 °C 4.4 °C 986.3 hPa SSE 14.5 km/h 25.7 km/h 95 % 0.51 mm 18 W/m2
10:23 5.1 °C 4.4 °C 986 hPa SSE 11.3 km/h 17.7 km/h 95 % 0.51 mm 14 W/m2
10:28 5.1 °C 4.4 °C 986 hPa SSE 9.7 km/h 14.5 km/h 95 % 0.51 mm 19 W/m2
10:31 5.1 °C 4.4 °C 986 hPa SSE 11.3 km/h 16.1 km/h 95 % 0.51 mm 18 W/m2
10:33 5.2 °C 4.4 °C 986 hPa SSE 11.3 km/h 16.1 km/h 95 % 0.51 mm 19 W/m2
10:38 5.2 °C 4.6 °C 985.7 hPa SSE 12.9 km/h 17.7 km/h 96 % 0.51 mm 44 W/m2
10:39 5.2 °C 4.6 °C 985.7 hPa SSE 12.9 km/h 17.7 km/h 96 % 0.51 mm 51 W/m2
10:44 5.2 °C 4.6 °C 985.7 hPa SE 8 km/h 14.5 km/h 96 % 0.51 mm 33 W/m2
10:47 5.2 °C 4.6 °C 985.7 hPa South 8 km/h 22.5 km/h 96 % 0.51 mm 28 W/m2
10:51 5.3 °C 4.7 °C 985.3 hPa SSW 3.2 km/h 11.3 km/h 96 % 0.51 mm 42 W/m2
10:53 5.3 °C 4.7 °C 985.3 hPa South 9.7 km/h 24.1 km/h 96 % 0.51 mm 42 W/m2
10:58 5.3 °C 4.7 °C 985 hPa SSE 9.7 km/h 17.7 km/h 96 % 0.51 mm 28 W/m2
11:02 5.4 °C 4.8 °C 985 hPa SW 11.3 km/h 20.9 km/h 96 % 0.51 mm 97 W/m2
11:07 5.5 °C 4.9 °C 985 hPa South 11.3 km/h 17.7 km/h 96 % 0.51 mm 90 W/m2
11:09 5.5 °C 4.9 °C 985 hPa South 9.7 km/h 17.7 km/h 96 % 0.51 mm 107 W/m2
11:14 5.7 °C 5.1 °C 984.6 hPa SSW 6.4 km/h 12.9 km/h 96 % 0.51 mm 188 W/m2
11:19 5.9 °C 5.3 °C 984.3 hPa South 6.4 km/h 9.7 km/h 96 % 0.51 mm 185 W/m2
11:21 6 °C 5.4 °C 984.3 hPa SSW 9.7 km/h 20.9 km/h 96 % 0.25 mm 274 W/m2
11:26 6.2 °C 5.6 °C 984 hPa South 9.7 km/h 12.9 km/h 96 % 0.25 mm 232 W/m2
11:30 6.3 °C 5.7 °C 984 hPa SSW 9.7 km/h 14.5 km/h 96 % 0.25 mm 234 W/m2
11:34 6.3 °C 5.7 °C 984 hPa SSW 9.7 km/h 16.1 km/h 96 % 0 mm 227 W/m2
11:39 6.4 °C 5.8 °C 984 hPa SSW 11.3 km/h 17.7 km/h 96 % 0 mm 237 W/m2
11:44 6.5 °C 5.9 °C 983.6 hPa SSW 9.7 km/h 17.7 km/h 96 % 0 mm 153 W/m2
11:49 6.5 °C 5.9 °C 983.6 hPa SW 8 km/h 12.9 km/h 96 % 0 mm 142 W/m2
11:54 6.6 °C 6 °C 983.6 hPa SSW 9.7 km/h 16.1 km/h 96 % 0 mm 132 W/m2
11:57 6.6 °C 6 °C 983.3 hPa SSW 11.3 km/h 17.7 km/h 96 % 0 mm 107 W/m2
12:02 6.6 °C 6 °C 983.3 hPa SW 11.3 km/h 16.1 km/h 96 % 0 mm 118 W/m2
12:06 6.7 °C 6.1 °C 983 hPa SW 11.3 km/h 16.1 km/h 96 % 0 mm 134 W/m2
12:11 6.9 °C 6.3 °C 983 hPa WSW 12.9 km/h 19.3 km/h 96 % 0 mm 230 W/m2
12:12 6.9 °C 6.3 °C 983 hPa WSW 12.9 km/h 19.3 km/h 96 % 0 mm 192 W/m2
12:17 7.3 °C 6.7 °C 983 hPa WSW 16.1 km/h 24.1 km/h 96 % 0 mm 220 W/m2
12:21 7.6 °C 7 °C 983 hPa WSW 14.5 km/h 20.9 km/h 96 % 0 mm 223 W/m2
12:22 7.7 °C 7.1 °C 983 hPa WSW 12.9 km/h 20.9 km/h 96 % 0 mm 216 W/m2
12:27 8 °C 7.4 °C 982.6 hPa WSW 12.9 km/h 17.7 km/h 96 % 0 mm 213 W/m2
12:28 8.1 °C 7.5 °C 982.6 hPa WSW 12.9 km/h 17.7 km/h 96 % 0 mm 218 W/m2
12:33 8.3 °C 7.6 °C 982.6 hPa WSW 11.3 km/h 19.3 km/h 95 % 0 mm 220 W/m2
12:37 8.6 °C 7.8 °C 982.6 hPa West 8 km/h 14.5 km/h 95 % 0 mm 225 W/m2
12:42 8.9 °C 8 °C 982.6 hPa WSW 11.3 km/h 30.6 km/h 94 % 0 mm 248 W/m2
12:44 9 °C 8.1 °C 982.6 hPa WSW 17.7 km/h 30.6 km/h 94 % 0 mm 248 W/m2
12:48 9.3 °C 8.1 °C 982.6 hPa WSW 17.7 km/h 29 km/h 92 % 0 mm 250 W/m2
12:51 9.5 °C 8.1 °C 982.3 hPa WSW 16.1 km/h 24.1 km/h 91 % 0 mm 274 W/m2
12:55 9.8 °C 8.2 °C 982.6 hPa WSW 16.1 km/h 29 km/h 90 % 0 mm 223 W/m2
12:57 9.9 °C 8.2 °C 982.3 hPa WSW 19.3 km/h 29 km/h 89 % 0 mm 214 W/m2
13:02 10.1 °C 8.2 °C 982.3 hPa WSW 16.1 km/h 30.6 km/h 88 % 0 mm 211 W/m2
13:04 10.1 °C 8.1 °C 982.3 hPa WSW 17.7 km/h 29 km/h 87 % 0 mm 183 W/m2
13:09 10.2 °C 7.9 °C 982.3 hPa WSW 24.1 km/h 37 km/h 86 % 0 mm 167 W/m2
13:11 10.2 °C 7.9 °C 982.3 hPa WSW 22.5 km/h 35.4 km/h 86 % 0 mm 97 W/m2
13:13 10.1 °C 7.7 °C 982.6 hPa WSW 24.1 km/h 40.2 km/h 85 % 0 mm 139 W/m2
13:16 10.1 °C 7.7 °C 982.6 hPa WSW 20.9 km/h 37 km/h 85 % 0 mm 90 W/m2
13:18 10.1 °C 7.7 °C 982.6 hPa West 25.7 km/h 45.1 km/h 85 % 0 mm 181 W/m2
13:23 10.1 °C 7.7 °C 982.6 hPa WSW 24.1 km/h 35.4 km/h 85 % 0 mm 169 W/m2
13:26 10.1 °C 7.7 °C 982.6 hPa WSW 22.5 km/h 41.8 km/h 85 % 0 mm 91 W/m2
13:27 10.1 °C 7.7 °C 982.6 hPa WSW 22.5 km/h 33.8 km/h 85 % 0 mm 77 W/m2
13:32 10 °C 7.6 °C 982.6 hPa WSW 24.1 km/h 37 km/h 85 % 0 mm 63 W/m2
13:37 10 °C 7.6 °C 982.6 hPa WSW 25.7 km/h 40.2 km/h 85 % 0 mm 178 W/m2
13:41 10 °C 7.6 °C 982.6 hPa West 25.7 km/h 41.8 km/h 85 % 0 mm 70 W/m2
13:42 10 °C 7.6 °C 982.6 hPa West 24.1 km/h 38.6 km/h 85 % 0 mm 76 W/m2
13:43 10 °C 7.6 °C 982.6 hPa West 20.9 km/h 38.6 km/h 85 % 0 mm 65 W/m2
13:48 9.9 °C 7.5 °C 982.6 hPa WSW 22.5 km/h 38.6 km/h 85 % 0 mm 54 W/m2
13:50 9.9 °C 7.5 °C 982.6 hPa WSW 24.1 km/h 41.8 km/h 85 % 0 mm 54 W/m2
13:54 9.8 °C 7.4 °C 982.6 hPa WSW 24.1 km/h 41.8 km/h 85 % 0 mm 74 W/m2
13:59 9.8 °C 7.4 °C 982.6 hPa WSW 29 km/h 40.2 km/h 85 % 0 mm 84 W/m2
14:03 9.8 °C 7.4 °C 982.6 hPa WSW 22.5 km/h 35.4 km/h 85 % 0 mm 56 W/m2
14:08 9.8 °C 7.4 °C 982.6 hPa WSW 25.7 km/h 40.2 km/h 85 % 0 mm 47 W/m2
14:10 9.8 °C 7.4 °C 982.6 hPa WSW 25.7 km/h 35.4 km/h 85 % 0 mm 65 W/m2
14:15 9.8 °C 7.4 °C 982.6 hPa WSW 17.7 km/h 32.2 km/h 85 % 0 mm 58 W/m2
14:18 9.8 °C 7.6 °C 982.6 hPa West 22.5 km/h 35.4 km/h 86 % 0 mm 134 W/m2
14:22 9.8 °C 7.6 °C 982.6 hPa WSW 20.9 km/h 30.6 km/h 86 % 0 mm 46 W/m2
14:25 9.8 °C 7.6 °C 982.6 hPa WSW 14.5 km/h 22.5 km/h 86 % 0 mm 69 W/m2
14:27 9.8 °C 7.6 °C 982.6 hPa WSW 19.3 km/h 30.6 km/h 86 % 0 mm 33 W/m2
14:32 9.8 °C 7.4 °C 982.6 hPa West 19.3 km/h 32.2 km/h 85 % 0 mm 16 W/m2
14:37 9.8 °C 7.4 °C 983 hPa WSW 24.1 km/h 45.1 km/h 85 % 0 mm 9 W/m2
14:42 9.2 °C 6.4 °C 983.3 hPa West 35.4 km/h 56.3 km/h 83 % 0 mm 37 W/m2
14:47 8.6 °C 6.2 °C 983.6 hPa West 27.4 km/h 41.8 km/h 85 % 0 mm 33 W/m2
14:48 8.5 °C 6.1 °C 983.6 hPa West 24.1 km/h 38.6 km/h 85 % 0 mm 54 W/m2
14:51 8.3 °C 6.1 °C 983.6 hPa West 29 km/h 48.3 km/h 86 % 0 mm 98 W/m2
14:56 7.8 °C 5.6 °C 984 hPa West 33.8 km/h 62.8 km/h 86 % 0 mm 77 W/m2
15:03 7.3 °C 4.9 °C 983.6 hPa West 38.6 km/h 53.1 km/h 85 % 0 mm 35 W/m2
15:08 7.1 °C 4.7 °C 983.6 hPa West 30.6 km/h 51.5 km/h 85 % 0 mm 33 W/m2
15:11 6.9 °C 4.6 °C 984 hPa West 30.6 km/h 48.3 km/h 85 % 0 mm 25 W/m2
15:15 6.8 °C 4.4 °C 984 hPa West 25.7 km/h 59.5 km/h 85 % 0 mm 18 W/m2
15:18 6.8 °C 4.4 °C 984 hPa West 30.6 km/h 51.5 km/h 85 % 0 mm 18 W/m2
15:21 6.7 °C 4.3 °C 983.6 hPa West 38.6 km/h 62.8 km/h 85 % 0 mm 21 W/m2
15:23 6.7 °C 4.3 °C 983.6 hPa West 38.6 km/h 53.1 km/h 85 % 0 mm 25 W/m2
15:25 6.6 °C 4.3 °C 983.6 hPa West 35.4 km/h 56.3 km/h 85 % 0 mm 19 W/m2
15:30 6.5 °C 4.3 °C 983.3 hPa West 40.2 km/h 59.5 km/h 86 % 0 mm 18 W/m2
15:35 6.4 °C 4.4 °C 983.6 hPa West 35.4 km/h 48.3 km/h 87 % 0 mm 9 W/m2
15:40 6.4 °C 4.4 °C 983.3 hPa West 35.4 km/h 61.2 km/h 87 % 0 mm 0 W/m2
15:43 6.5 °C 4.5 °C 983.6 hPa West 40.2 km/h 53.1 km/h 87 % 0 mm 5 W/m2
15:45 6.5 °C 4.5 °C 983.6 hPa West 37 km/h 61.2 km/h 87 % 0 mm 0 W/m2
15:48 6.6 °C 4.6 °C 983.3 hPa West 33.8 km/h 56.3 km/h 87 % 0 mm 0 W/m2
15:51 6.6 °C 4.6 °C 983.3 hPa West 41.8 km/h 66 km/h 87 % 0 mm 5 W/m2
15:53 6.6 °C 4.8 °C 983.3 hPa West 41.8 km/h 80.5 km/h 88 % 0 mm 5 W/m2
15:58 6.7 °C 4.7 °C 983 hPa West 45.1 km/h 85.3 km/h 87 % 0 mm 0 W/m2
16:03 6.7 °C 4.8 °C 983.3 hPa West 38.6 km/h 51.5 km/h 88 % 0 mm 0 W/m2
16:08 6.8 °C 4.9 °C 983.6 hPa West 45.1 km/h 74 km/h 88 % 0 mm 0 W/m2
16:14 6.9 °C 4.9 °C 984 hPa West 43.5 km/h 72.4 km/h 87 % 0 mm 0 W/m2
16:17 6.9 °C 5.1 °C 984 hPa West 38.6 km/h 53.1 km/h 88 % 0 mm 0 W/m2
16:22 6.8 °C 4.8 °C 984.3 hPa West 43.5 km/h 67.6 km/h 87 % 0 mm 0 W/m2
16:24 6.8 °C 4.8 °C 984.6 hPa West 38.6 km/h 70.8 km/h 87 % 0 mm 0 W/m2
16:27 6.8 °C 4.6 °C 984.6 hPa West 43.5 km/h 67.6 km/h 86 % 0 mm 0 W/m2
16:32 6.7 °C 4.5 °C 985 hPa West 41.8 km/h 62.8 km/h 86 % 0 mm 0 W/m2
16:36 6.6 °C 4.4 °C 985 hPa West 45.1 km/h 72.4 km/h 86 % 0 mm 0 W/m2
16:38 6.5 °C 4.3 °C 985 hPa West 37 km/h 57.9 km/h 86 % 0 mm 0 W/m2
16:43 6.3 °C 4.1 °C 985.3 hPa West 35.4 km/h 54.7 km/h 86 % 0 mm 0 W/m2
16:45 6.2 °C 4.1 °C 985.3 hPa West 37 km/h 54.7 km/h 86 % 0 mm 0 W/m2
16:50 6.1 °C 4.1 °C 985.3 hPa West 35.4 km/h 49.9 km/h 87 % 0 mm 0 W/m2
16:55 5.9 °C 3.9 °C 985.7 hPa West 37 km/h 49.9 km/h 87 % 0 mm 0 W/m2
16:56 5.9 °C 3.9 °C 985.7 hPa West 37 km/h 49.9 km/h 87 % 0 mm 0 W/m2
16:58 5.9 °C 3.9 °C 985.7 hPa West 35.4 km/h 49.9 km/h 87 % 0 mm 0 W/m2
17:01 5.9 °C 4.1 °C 986 hPa WNW 32.2 km/h 51.5 km/h 88 % 0 mm 0 W/m2
17:05 5.9 °C 4.1 °C 986 hPa West 32.2 km/h 48.3 km/h 88 % 0 mm 0 W/m2
17:11 5.8 °C 3.9 °C 986 hPa West 33.8 km/h 56.3 km/h 88 % 0 mm 0 W/m2
17:12 5.8 °C 3.9 °C 986 hPa West 33.8 km/h 56.3 km/h 88 % 0 mm 0 W/m2
17:17 5.8 °C 3.9 °C 986 hPa West 24.1 km/h 40.2 km/h 88 % 0 mm 0 W/m2
17:20 5.8 °C 3.9 °C 986.3 hPa West 35.4 km/h 49.9 km/h 88 % 0 mm 0 W/m2
17:21 5.8 °C 3.9 °C 986.3 hPa West 35.4 km/h 49.9 km/h 88 % 0 mm 0 W/m2
17:26 5.9 °C 4.1 °C 986.3 hPa West 30.6 km/h 45.1 km/h 88 % 0 mm 0 W/m2
17:29 5.9 °C 4.1 °C 986.3 hPa West 32.2 km/h 51.5 km/h 88 % 0 mm 0 W/m2
17:33 6 °C 4 °C 986.7 hPa West 37 km/h 49.9 km/h 87 % 0 mm 0 W/m2
17:36 6.1 °C 4.1 °C 986.7 hPa West 40.2 km/h 67.6 km/h 87 % 0 mm 0 W/m2
17:41 6.1 °C 4.1 °C 986.7 hPa West 35.4 km/h 61.2 km/h 87 % 0 mm 0 W/m2
17:42 6.1 °C 4.1 °C 987 hPa WNW 37 km/h 54.7 km/h 87 % 0 mm 0 W/m2
17:47 6 °C 4 °C 987 hPa West 37 km/h 56.3 km/h 87 % 0 mm 0 W/m2
17:52 5.9 °C 4.1 °C 987.4 hPa West 35.4 km/h 48.3 km/h 88 % 0 mm 0 W/m2
17:57 5.9 °C 4.2 °C 987.7 hPa WNW 30.6 km/h 46.7 km/h 89 % 0 mm 0 W/m2
17:58 5.8 °C 4.1 °C 987.7 hPa WNW 30.6 km/h 46.7 km/h 89 % 0 mm 0 W/m2
18:03 5.8 °C 4.1 °C 987.7 hPa West 27.4 km/h 41.8 km/h 89 % 0 mm 0 W/m2
18:08 5.8 °C 4.1 °C 987.7 hPa WNW 38.6 km/h 51.5 km/h 89 % 0 mm 0 W/m2
18:13 5.8 °C 4.1 °C 987.7 hPa WNW 35.4 km/h 48.3 km/h 89 % 0 mm 0 W/m2
18:18 5.9 °C 4.4 °C 988 hPa WNW 30.6 km/h 53.1 km/h 90 % 0 mm 0 W/m2
18:26 5.8 °C 4.3 °C 988 hPa West 33.8 km/h 49.9 km/h 90 % 0 mm 0 W/m2
18:29 5.8 °C 4.3 °C 988.4 hPa WNW 29 km/h 45.1 km/h 90 % 0 mm 0 W/m2
18:30 5.8 °C 4.3 °C 988 hPa WNW 30.6 km/h 45.1 km/h 90 % 0 mm 0 W/m2
18:35 5.8 °C 4.3 °C 988 hPa WNW 29 km/h 51.5 km/h 90 % 0 mm 0 W/m2
18:36 5.8 °C 4.3 °C 988 hPa West 25.7 km/h 38.6 km/h 90 % 0 mm 0 W/m2
18:41 5.8 °C 4.1 °C 988 hPa West 30.6 km/h 43.5 km/h 89 % 0 mm 0 W/m2
18:42 5.8 °C 4.1 °C 987.7 hPa West 29 km/h 43.5 km/h 89 % 0 mm 0 W/m2
18:47 5.9 °C 3.9 °C 988 hPa West 30.6 km/h 48.3 km/h 87 % 0 mm 0 W/m2
18:52 6 °C 3.8 °C 988 hPa WNW 35.4 km/h 51.5 km/h 86 % 0 mm 0 W/m2
18:57 6 °C 3.8 °C 987.7 hPa WNW 35.4 km/h 45.1 km/h 86 % 0 mm 0 W/m2
18:58 6.1 °C 3.9 °C 987.7 hPa WNW 33.8 km/h 45.1 km/h 86 % 0 mm 0 W/m2
19:03 6.1 °C 3.8 °C 988 hPa WNW 32.2 km/h 49.9 km/h 85 % 0 mm 0 W/m2
19:05 6.1 °C 3.6 °C 988 hPa WNW 33.8 km/h 53.1 km/h 84 % 0 mm 0 W/m2
19:10 6.1 °C 3.6 °C 988 hPa WNW 32.2 km/h 49.9 km/h 84 % 0 mm 0 W/m2
19:11 6.1 °C 3.6 °C 988 hPa WNW 33.8 km/h 48.3 km/h 84 % 0 mm 0 W/m2
19:17 6.1 °C 3.6 °C 988 hPa West 33.8 km/h 49.9 km/h 84 % 0 mm 0 W/m2
19:22 6 °C 3.7 °C 988.4 hPa WNW 29 km/h 46.7 km/h 85 % 0 mm 0 W/m2
19:23 6 °C 3.7 °C 988.4 hPa WNW 27.4 km/h 41.8 km/h 85 % 0 mm 0 W/m2
19:26 5.9 °C 3.6 °C 988 hPa WNW 30.6 km/h 46.7 km/h 85 % 0 mm 0 W/m2
19:28 5.9 °C 3.7 °C 988.4 hPa West 32.2 km/h 53.1 km/h 86 % 0 mm 0 W/m2
19:30 5.9 °C 3.7 °C 988.4 hPa WNW 29 km/h 45.1 km/h 86 % 0 mm 0 W/m2
19:35 5.8 °C 3.6 °C 988.4 hPa WNW 30.6 km/h 46.7 km/h 86 % 0 mm 0 W/m2
19:38 5.8 °C 3.4 °C 988.4 hPa WNW 29 km/h 43.5 km/h 85 % 0 mm 0 W/m2
19:43 5.9 °C 3.6 °C 988.4 hPa WNW 30.6 km/h 48.3 km/h 85 % 0 mm 0 W/m2
19:48 5.9 °C 3.4 °C 988.4 hPa WNW 30.6 km/h 48.3 km/h 84 % 0 mm 0 W/m2
19:53 5.9 °C 3.4 °C 988.4 hPa WNW 27.4 km/h 45.1 km/h 84 % 0 mm 0 W/m2
19:58 5.9 °C 3.4 °C 988.4 hPa WNW 30.6 km/h 48.3 km/h 84 % 0 mm 0 W/m2
20:03 5.9 °C 3.6 °C 988.4 hPa WNW 32.2 km/h 43.5 km/h 85 % 0 mm 0 W/m2
20:08 5.9 °C 3.6 °C 988.4 hPa WNW 29 km/h 45.1 km/h 85 % 0 mm 0 W/m2
20:13 5.9 °C 3.6 °C 988.7 hPa West 27.4 km/h 41.8 km/h 85 % 0 mm 0 W/m2
20:15 5.9 °C 3.6 °C 988.7 hPa West 27.4 km/h 41.8 km/h 85 % 0 mm 0 W/m2
20:16 5.9 °C 3.6 °C 988.4 hPa West 27.4 km/h 37 km/h 85 % 0 mm 0 W/m2
20:20 5.9 °C 3.4 °C 988.7 hPa West 29 km/h 46.7 km/h 84 % 0 mm 0 W/m2
20:25 5.9 °C 3.4 °C 988.7 hPa West 25.7 km/h 41.8 km/h 84 % 0 mm 0 W/m2
20:26 5.9 °C 3.4 °C 988.7 hPa West 22.5 km/h 41.8 km/h 84 % 0 mm 0 W/m2
20:32 5.9 °C 3.4 °C 988.7 hPa West 27.4 km/h 45.1 km/h 84 % 0 mm 0 W/m2
20:37 5.9 °C 3.4 °C 988.7 hPa West 29 km/h 40.2 km/h 84 % 0 mm 0 W/m2
20:41 6 °C 3.5 °C 989.1 hPa West 29 km/h 45.1 km/h 84 % 0 mm 0 W/m2
20:46 6 °C 3.5 °C 989.1 hPa West 25.7 km/h 38.6 km/h 84 % 0 mm 0 W/m2
20:47 6 °C 3.5 °C 989.1 hPa West 27.4 km/h 41.8 km/h 84 % 0 mm 0 W/m2
20:52 6.1 °C 3.4 °C 989.1 hPa West 29 km/h 45.1 km/h 83 % 0 mm 0 W/m2
20:57 6.1 °C 3.4 °C 989.4 hPa WSW 29 km/h 43.5 km/h 83 % 0 mm 0 W/m2
21:02 6.1 °C 3.4 °C 989.4 hPa West 17.7 km/h 33.8 km/h 83 % 0 mm 0 W/m2
21:06 6 °C 3.3 °C 989.4 hPa West 25.7 km/h 37 km/h 83 % 0 mm 0 W/m2
21:14 6 °C 3.3 °C 989.7 hPa West 17.7 km/h 25.7 km/h 83 % 0 mm 0 W/m2
21:19 5.9 °C 3.4 °C 989.7 hPa West 12.9 km/h 22.5 km/h 84 % 0 mm 0 W/m2
21:24 5.9 °C 3.4 °C 989.7 hPa West 11.3 km/h 19.3 km/h 84 % 0 mm 0 W/m2
21:27 5.9 °C 3.4 °C 989.7 hPa West 12.9 km/h 24.1 km/h 84 % 0 mm 0 W/m2
21:33 5.8 °C 3.3 °C 989.7 hPa West 11.3 km/h 19.3 km/h 84 % 0 mm 0 W/m2
21:34 5.8 °C 3.1 °C 989.7 hPa West 11.3 km/h 19.3 km/h 83 % 0 mm 0 W/m2
21:36 5.8 °C 3.1 °C 990.1 hPa West 17.7 km/h 29 km/h 83 % 0 mm 0 W/m2
21:38 5.8 °C 3.1 °C 990.1 hPa West 22.5 km/h 30.6 km/h 83 % 0 mm 0 W/m2
21:41 5.8 °C 3.1 °C 990.1 hPa West 16.1 km/h 32.2 km/h 83 % 0 mm 0 W/m2
21:43 5.8 °C 3.1 °C 990.1 hPa West 17.7 km/h 25.7 km/h 83 % 0 mm 0 W/m2
21:44 5.8 °C 3.1 °C 990.1 hPa West 16.1 km/h 22.5 km/h 83 % 0 mm 0 W/m2
21:45 5.8 °C 3.1 °C 990.1 hPa West 16.1 km/h 22.5 km/h 83 % 0 mm 0 W/m2
21:47 5.8 °C 3.1 °C 990.1 hPa West 17.7 km/h 24.1 km/h 83 % 0 mm 0 W/m2
21:48 5.8 °C 3.1 °C 990.1 hPa West 19.3 km/h 24.1 km/h 83 % 0 mm 0 W/m2
21:49 5.8 °C 3.1 °C 990.1 hPa West 16.1 km/h 24.1 km/h 83 % 0 mm 0 W/m2
21:51 5.8 °C 3.1 °C 990.1 hPa West 17.7 km/h 41.8 km/h 83 % 0 mm 0 W/m2
21:53 5.7 °C 3.1 °C 990.1 hPa West 25.7 km/h 41.8 km/h 83 % 0 mm 0 W/m2
22:00 5.6 °C 3.3 °C 990.1 hPa West 19.3 km/h 24.1 km/h 85 % 0 mm 0 W/m2
22:01 5.5 °C 3.2 °C 990.1 hPa West 17.7 km/h 24.1 km/h 85 % 0 mm 0 W/m2
22:07 5.4 °C 3.2 °C 990.1 hPa WNW 16.1 km/h 24.1 km/h 86 % 0 mm 0 W/m2
22:10 5.3 °C 3.2 °C 990.1 hPa WNW 14.5 km/h 20.9 km/h 86 % 0 mm 0 W/m2
22:16 5.3 °C 3.3 °C 990.1 hPa WNW 14.5 km/h 19.3 km/h 87 % 0 mm 0 W/m2
22:21 5.2 °C 3.2 °C 989.7 hPa WNW 12.9 km/h 17.7 km/h 87 % 0 mm 0 W/m2
22:26 5.1 °C 3.1 °C 990.1 hPa WNW 11.3 km/h 19.3 km/h 87 % 0 mm 0 W/m2
22:31 5.1 °C 3.3 °C 989.7 hPa West 4.8 km/h 11.3 km/h 88 % 0 mm 0 W/m2
22:36 4.9 °C 2.9 °C 989.7 hPa West 3.2 km/h 8 km/h 87 % 0 mm 0 W/m2
22:38 4.9 °C 3.1 °C 989.7 hPa West 4.8 km/h 11.3 km/h 88 % 0 mm 0 W/m2
22:43 4.9 °C 3.1 °C 989.7 hPa West 11.3 km/h 17.7 km/h 88 % 0 mm 0 W/m2
22:48 4.9 °C 3.1 °C 990.1 hPa SW 6.4 km/h 11.3 km/h 88 % 0 mm 0 W/m2
22:51 4.9 °C 3.1 °C 990.1 hPa West 11.3 km/h 17.7 km/h 88 % 0 mm 0 W/m2
22:56 5 °C 3 °C 990.1 hPa WSW 11.3 km/h 16.1 km/h 87 % 0 mm 0 W/m2
22:57 5 °C 3 °C 990.1 hPa West 11.3 km/h 19.3 km/h 87 % 0 mm 0 W/m2
23:02 5 °C 3 °C 990.1 hPa WSW 6.4 km/h 9.7 km/h 87 % 0 mm 0 W/m2
23:05 5.1 °C 3.1 °C 990.1 hPa SW 8 km/h 11.3 km/h 87 % 0 mm 0 W/m2
23:12 5.1 °C 3.1 °C 990.4 hPa SW 8 km/h 11.3 km/h 87 % 0 mm 0 W/m2
23:17 5.1 °C 3.3 °C 990.4 hPa SW 9.7 km/h 16.1 km/h 88 % 0 mm 0 W/m2
23:25 5.1 °C 3.3 °C 990.4 hPa WSW 12.9 km/h 17.7 km/h 88 % 0 mm 0 W/m2
23:30 5.2 °C 3.4 °C 990.1 hPa WSW 11.3 km/h 19.3 km/h 88 % 0 mm 0 W/m2
23:31 5.2 °C 3.4 °C 990.1 hPa WSW 11.3 km/h 19.3 km/h 88 % 0 mm 0 W/m2
23:36 5.1 °C 3.3 °C 990.1 hPa WSW 12.9 km/h 19.3 km/h 88 % 0 mm 0 W/m2
23:38 5.1 °C 3.3 °C 990.1 hPa WSW 14.5 km/h 22.5 km/h 88 % 0 mm 0 W/m2
23:43 5.1 °C 3.3 °C 990.4 hPa West 12.9 km/h 17.7 km/h 88 % 0 mm 0 W/m2
23:46 5 °C 3.2 °C 990.4 hPa West 12.9 km/h 19.3 km/h 88 % 0 mm 0 W/m2
23:56 4.8 °C 3 °C 990.4 hPa West 9.7 km/h 16.1 km/h 88 % 0 mm 0 W/m2
Delerius-Weather
Compliments of Weather Underground - 3 mb

Data updates at regular intervals.